Time;durP1;ratioP1;P1;durP2;ratioP2;P2;SDS_P1;SDS_P2;PMS_P1;PMS_P2;Temp;Humidity;BMP_temperature;BMP_pressure;BME280_temperature;BME280_humidity;BME280_pressure;Samples;Min_cycle;Max_cycle;Signal;HPM_P1;HPM_P2
2021/08/26 16:02:20;;;;;;;7.23;3.20;;;;;;;;;;10601214;27;20455;-85
2021/08/26 16:07:21;;;;;;;6.97;3.67;;;;;;;;;;10597530;28;20039;-86
2021/08/26 16:12:48;;;;;;;6.32;3.10;;;;;;;;;;10600172;28;20083;-85
2021/08/26 16:23:12;;;;;;;6.28;3.15;;;;;;;;;;10605351;28;20020;-83
2021/08/26 16:28:13;;;;;;;5.38;2.80;;;;;;;;;;10605957;28;20035;-84
2021/08/26 16:33:16;;;;;;;4.18;2.38;;;;;;;;;;10600936;28;20058;-87
2021/08/26 16:38:27;;;;;;;5.07;2.55;;;;;;;;;;10592815;28;20032;-86
2021/08/26 16:43:31;;;;;;;4.70;2.28;;;;;;;;;;10599927;28;20024;-88
2021/08/26 16:48:43;;;;;;;4.53;2.50;;;;;;;;;;10598723;28;20020;-88
2021/08/26 16:53:54;;;;;;;3.42;2.30;;;;;;;;;;10596956;28;20053;-87
2021/08/26 17:10:19;;;;;;;4.82;2.10;;;;;;;;;;10594010;28;20032;-88
2021/08/26 17:15:20;;;;;;;4.47;2.33;;;;;;;;;;10567717;28;20031;-87
2021/08/26 17:20:21;;;;;;;4.15;1.80;;;;;;;;;;10563699;28;20107;-87
2021/08/26 17:25:22;;;;;;;4.15;1.73;;;;;;;;;;10561628;28;20043;-88
2021/08/26 17:30:23;;;;;;;5.00;2.13;;;;;;;;;;10570022;28;20036;-87
2021/08/26 17:35:25;;;;;;;3.47;1.92;;;;;;;;;;10566034;28;20058;-87
2021/08/26 17:40:26;;;;;;;3.25;1.70;;;;;;;;;;10563513;28;20032;-87
2021/08/26 17:45:32;;;;;;;3.33;1.67;;;;;;;;;;10561956;28;20028;-84
2021/08/26 17:50:33;;;;;;;6.00;2.22;;;;;;;;;;10577408;28;20114;-84
2021/08/26 17:55:34;;;;;;;9.52;3.08;;;;;;;;;;10574997;28;20102;-84
2021/08/26 18:00:35;;;;;;;12.88;4.28;;;;;;;;;;10569616;28;20078;-87
2021/08/26 18:05:35;;;;;;;19.95;5.53;;;;;;;;;;10543379;28;20447;-87
2021/08/26 18:10:37;;;;;;;24.23;6.65;;;;;;;;;;10556387;28;20043;-87
2021/08/26 18:15:38;;;;;;;20.02;6.05;;;;;;;;;;10544854;28;20109;-87
2021/08/26 18:20:40;;;;;;;23.88;7.57;;;;;;;;;;10543025;28;20035;-87
2021/08/26 18:25:41;;;;;;;18.33;6.50;;;;;;;;;;10550028;28;20607;-87
2021/08/26 18:30:42;;;;;;;16.92;6.38;;;;;;;;;;10558678;28;20028;-87
2021/08/26 18:35:43;;;;;;;17.33;5.10;;;;;;;;;;10565203;28;20024;-88
2021/08/26 18:40:50;;;;;;;11.18;5.32;;;;;;;;;;10578400;28;20139;-88
2021/08/26 18:45:58;;;;;;;12.18;4.57;;;;;;;;;;10573847;28;20031;-87
2021/08/26 18:50:59;;;;;;;9.07;3.47;;;;;;;;;;10556443;28;20030;-86
2021/08/26 18:56:00;;;;;;;8.60;3.45;;;;;;;;;;10566083;28;20028;-86
2021/08/26 19:01:01;;;;;;;6.65;3.10;;;;;;;;;;10575379;28;20045;-86
2021/08/26 19:06:03;;;;;;;6.70;2.58;;;;;;;;;;10553894;28;20385;-85
2021/08/26 19:11:13;;;;;;;6.82;2.60;;;;;;;;;;10559235;28;20085;-85
2021/08/26 19:16:14;;;;;;;6.40;2.40;;;;;;;;;;10592752;27;20061;-86
2021/08/26 19:21:15;;;;;;;5.60;2.08;;;;;;;;;;10631775;27;20035;-84
2021/08/26 19:26:16;;;;;;;6.43;1.75;;;;;;;;;;10629505;27;20058;-86
2021/08/26 19:31:17;;;;;;;3.83;1.73;;;;;;;;;;10644188;27;20026;-86
2021/08/26 19:36:22;;;;;;;3.58;1.40;;;;;;;;;;10624676;27;20027;-86
2021/08/26 19:41:23;;;;;;;3.10;1.33;;;;;;;;;;10609763;27;20023;-87
2021/08/26 19:46:24;;;;;;;3.78;1.70;;;;;;;;;;10634456;27;20034;-87
2021/08/26 19:51:29;;;;;;;5.80;3.70;;;;;;;;;;10648103;27;20069;-87
2021/08/26 19:56:29;;;;;;;12.05;8.30;;;;;;;;;;10615068;27;20370;-87
2021/08/26 20:01:30;;;;;;;12.18;10.00;;;;;;;;;;10625112;28;20023;-87
2021/08/26 20:06:32;;;;;;;21.13;15.25;;;;;;;;;;10611482;27;20098;-86
2021/08/26 20:11:33;;;;;;;19.77;15.57;;;;;;;;;;10655576;27;20027;-81
2021/08/26 20:16:34;;;;;;;9.35;7.10;;;;;;;;;;10655216;27;20019;-83
